createdAt,value
2022-08-03T00:00:21.305Z,0.00
2022-08-03T00:01:21.295Z,0.00
2022-08-03T00:02:21.277Z,0.00
2022-08-03T00:03:21.354Z,0.00
2022-08-03T00:04:21.247Z,0.00
2022-08-03T00:05:22.259Z,0.00
2022-08-03T00:06:21.226Z,0.00
2022-08-03T00:07:21.214Z,0.00
2022-08-03T00:08:21.196Z,0.00
2022-08-03T00:09:21.184Z,0.00
2022-08-03T00:10:21.172Z,0.00
2022-08-03T00:11:21.157Z,0.00
2022-08-03T00:12:21.153Z,0.00
2022-08-03T00:13:21.137Z,0.00
2022-08-03T00:14:21.124Z,0.00
2022-08-03T00:15:21.116Z,0.00
2022-08-03T00:16:21.093Z,0.00
2022-08-03T00:17:21.083Z,0.00
2022-08-03T00:18:21.062Z,0.00
2022-08-03T00:19:21.055Z,0.00
2022-08-03T00:20:21.036Z,0.00
2022-08-03T00:21:21.028Z,0.00
2022-08-03T00:22:21.006Z,0.00
2022-08-03T00:23:20.998Z,0.00
2022-08-03T00:24:20.986Z,0.00
2022-08-03T00:25:20.971Z,0.00
2022-08-03T00:26:20.982Z,0.00
2022-08-03T00:27:20.943Z,0.00
2022-08-03T00:28:20.931Z,0.00
2022-08-03T00:29:20.917Z,0.00
2022-08-03T00:30:20.906Z,0.00
2022-08-03T00:31:39.714Z,0.00
2022-08-03T00:32:20.878Z,0.00
2022-08-03T00:33:20.866Z,0.00
2022-08-03T00:34:29.855Z,0.00
2022-08-03T00:35:33.451Z,0.00
2022-08-03T00:36:20.823Z,0.00
2022-08-03T00:37:20.818Z,0.00
2022-08-03T00:38:20.799Z,0.00
2022-08-03T00:39:20.790Z,0.00
2022-08-03T00:40:20.764Z,0.00
2022-08-03T00:41:20.758Z,0.00
2022-08-03T00:42:20.747Z,0.00
2022-08-03T00:43:20.730Z,0.00
2022-08-03T00:44:20.707Z,0.00
2022-08-03T00:45:20.699Z,0.00
2022-08-03T00:46:21.978Z,0.00
2022-08-03T00:47:20.674Z,0.00
2022-08-03T00:48:33.130Z,0.00
2022-08-03T00:49:21.708Z,0.00
2022-08-03T00:50:20.633Z,0.00
2022-08-03T00:51:20.830Z,0.00
2022-08-03T00:52:20.763Z,0.00
2022-08-03T00:53:20.596Z,0.00
2022-08-03T00:54:20.584Z,0.00
2022-08-03T00:55:20.567Z,0.00
2022-08-03T00:56:20.552Z,0.00
2022-08-03T00:57:20.542Z,0.00
2022-08-03T00:58:20.525Z,0.00
2022-08-03T00:59:20.513Z,0.00
2022-08-03T01:00:20.497Z,0.00
2022-08-03T01:01:20.550Z,0.00
2022-08-03T01:02:20.468Z,0.00
2022-08-03T01:03:20.455Z,0.00
2022-08-03T01:04:20.443Z,0.00
2022-08-03T01:05:20.435Z,0.00
2022-08-03T01:06:20.422Z,0.00
2022-08-03T01:07:20.415Z,0.00
2022-08-03T01:08:20.387Z,0.00
2022-08-03T01:09:20.374Z,0.00
2022-08-03T01:10:20.360Z,0.00
2022-08-03T01:11:20.348Z,0.00
2022-08-03T01:12:20.333Z,0.00
2022-08-03T01:14:01.334Z,0.00
2022-08-03T01:14:20.305Z,0.00
2022-08-03T01:15:20.293Z,0.00
2022-08-03T01:16:20.283Z,0.00
2022-08-03T01:17:20.270Z,0.00
2022-08-03T01:18:20.257Z,0.00
2022-08-03T01:19:20.255Z,0.00
2022-08-03T01:20:20.227Z,0.00
2022-08-03T01:21:20.221Z,0.00
2022-08-03T01:22:20.199Z,0.00
2022-08-03T01:23:20.191Z,0.00
2022-08-03T01:24:20.175Z,0.00
2022-08-03T01:25:20.162Z,0.00
2022-08-03T01:26:20.146Z,0.00
2022-08-03T01:27:20.131Z,0.00
2022-08-03T01:28:20.115Z,0.00
2022-08-03T01:29:20.105Z,0.00
2022-08-03T01:30:20.091Z,0.00
2022-08-03T01:31:20.076Z,0.00
2022-08-03T01:32:59.363Z,0.00
2022-08-03T01:33:20.051Z,0.00
2022-08-03T01:34:20.038Z,0.00
2022-08-03T01:35:20.030Z,0.00
2022-08-03T01:36:20.013Z,0.00
2022-08-03T01:37:19.993Z,0.00
2022-08-03T01:38:19.985Z,0.00
2022-08-03T01:39:19.971Z,0.00
2022-08-03T01:40:19.956Z,0.00
2022-08-03T01:41:19.968Z,0.00
2022-08-03T01:42:19.923Z,0.00
2022-08-03T01:44:26.862Z,0.00
2022-08-03T01:44:29.942Z,0.00
2022-08-03T01:45:19.897Z,0.00
2022-08-03T01:46:19.878Z,0.00
2022-08-03T01:47:19.867Z,0.00
2022-08-03T01:48:19.842Z,0.00
2022-08-03T01:49:19.940Z,0.00
2022-08-03T01:50:19.817Z,0.00
2022-08-03T01:51:19.812Z,0.00
2022-08-03T01:52:20.155Z,0.00
2022-08-03T01:53:19.788Z,0.00
2022-08-03T01:54:19.766Z,0.00
2022-08-03T01:55:19.758Z,0.00
2022-08-03T01:56:19.743Z,0.00
2022-08-03T01:57:19.731Z,0.00
2022-08-03T01:58:19.720Z,0.00
2022-08-03T01:59:19.705Z,0.00
2022-08-03T02:00:19.718Z,0.00
2022-08-03T02:01:19.790Z,0.00
2022-08-03T02:02:33.179Z,0.00
2022-08-03T02:03:19.649Z,0.00
2022-08-03T02:04:19.637Z,0.00
2022-08-03T02:05:19.617Z,0.00
2022-08-03T02:07:00.281Z,0.00
2022-08-03T02:07:19.605Z,0.00
2022-08-03T02:08:19.573Z,0.00
2022-08-03T02:09:19.567Z,0.00
2022-08-03T02:10:23.068Z,0.00
2022-08-03T02:11:20.559Z,0.00
2022-08-03T02:12:19.541Z,0.00
2022-08-03T02:13:19.513Z,0.00
2022-08-03T02:14:19.503Z,0.00
2022-08-03T02:15:19.487Z,0.00
2022-08-03T02:16:19.470Z,0.00
2022-08-03T02:17:19.462Z,0.00
2022-08-03T02:18:19.447Z,0.00
2022-08-03T02:19:19.433Z,0.00
2022-08-03T02:20:19.412Z,0.00
2022-08-03T02:21:55.606Z,0.00
2022-08-03T02:22:19.391Z,0.00
2022-08-03T02:23:19.379Z,0.00
2022-08-03T02:24:19.360Z,0.00
2022-08-03T02:25:19.352Z,0.00
2022-08-03T02:26:19.332Z,0.00
2022-08-03T02:27:19.330Z,0.00
2022-08-03T02:28:19.310Z,0.00
2022-08-03T02:29:19.299Z,0.00
2022-08-03T02:30:19.285Z,0.00
2022-08-03T02:31:19.272Z,0.00
2022-08-03T02:32:19.607Z,0.00
2022-08-03T02:33:19.238Z,0.00
2022-08-03T02:34:19.230Z,0.00
2022-08-03T02:35:19.217Z,0.00
2022-08-03T02:36:19.203Z,0.00
2022-08-03T02:37:19.190Z,0.00
2022-08-03T02:38:19.176Z,0.00
2022-08-03T02:39:19.157Z,0.00
2022-08-03T02:40:19.141Z,0.00
2022-08-03T02:41:19.138Z,0.00
2022-08-03T02:42:19.391Z,0.00
2022-08-03T02:43:19.114Z,0.00
2022-08-03T02:44:19.096Z,0.00
2022-08-03T02:45:19.083Z,0.00
2022-08-03T02:46:19.069Z,0.00
2022-08-03T02:47:19.054Z,0.00
2022-08-03T02:48:19.036Z,0.00
2022-08-03T02:49:40.623Z,0.00
2022-08-03T02:50:20.083Z,0.00
2022-08-03T02:51:18.996Z,0.00
2022-08-03T02:52:19.215Z,0.00
2022-08-03T02:53:18.969Z,0.00
2022-08-03T02:54:18.964Z,0.00
2022-08-03T02:55:18.946Z,0.00
2022-08-03T02:56:18.935Z,0.00
2022-08-03T02:57:18.917Z,0.00
2022-08-03T02:58:18.913Z,0.00
2022-08-03T02:59:18.889Z,0.00
2022-08-03T03:00:27.610Z,0.00
2022-08-03T03:01:19.945Z,0.00
2022-08-03T03:02:19.135Z,0.00
2022-08-03T03:03:18.834Z,0.00
2022-08-03T03:04:18.827Z,0.00
2022-08-03T03:05:56.453Z,0.00
2022-08-03T03:06:18.805Z,0.00
2022-08-03T03:07:18.782Z,0.00
2022-08-03T03:08:26.201Z,0.00
2022-08-03T03:09:19.777Z,0.00
2022-08-03T03:10:18.745Z,0.00
2022-08-03T03:11:18.719Z,0.00
2022-08-03T03:12:18.715Z,0.00
2022-08-03T03:13:18.703Z,0.00
2022-08-03T03:14:18.689Z,0.00
2022-08-03T03:15:18.671Z,0.00
2022-08-03T03:16:18.663Z,0.00
2022-08-03T03:17:18.648Z,0.00
2022-08-03T03:18:22.261Z,0.00
2022-08-03T03:19:18.636Z,0.00
2022-08-03T03:20:29.632Z,0.00
2022-08-03T03:21:18.587Z,0.00
2022-08-03T03:22:18.670Z,0.00
2022-08-03T03:23:18.558Z,0.00
2022-08-03T03:24:18.558Z,0.00
2022-08-03T03:25:18.533Z,0.00
2022-08-03T03:26:18.523Z,0.00
2022-08-03T03:27:18.508Z,0.00
2022-08-03T03:28:18.497Z,0.00
2022-08-03T03:29:18.482Z,0.00
2022-08-03T03:30:18.474Z,0.00
2022-08-03T03:31:18.451Z,0.00
2022-08-03T03:32:18.437Z,0.00
2022-08-03T03:33:18.425Z,0.00
2022-08-03T03:34:18.410Z,0.00
2022-08-03T03:35:18.392Z,0.00
2022-08-03T03:36:18.382Z,0.00
2022-08-03T03:37:18.366Z,0.00
2022-08-03T03:38:18.360Z,0.00
2022-08-03T03:39:18.342Z,0.00
2022-08-03T03:40:18.334Z,0.00
2022-08-03T03:41:18.317Z,0.00
2022-08-03T03:42:18.308Z,0.00
2022-08-03T03:43:18.292Z,0.00
2022-08-03T03:44:18.274Z,0.00
2022-08-03T03:45:18.263Z,0.00
2022-08-03T03:46:18.249Z,0.00
2022-08-03T03:47:18.234Z,0.00
2022-08-03T03:48:18.219Z,0.00
2022-08-03T03:49:18.233Z,0.00
2022-08-03T03:50:18.187Z,0.00
2022-08-03T03:51:18.175Z,0.00
2022-08-03T03:52:18.297Z,0.00
2022-08-03T03:53:18.148Z,0.00
2022-08-03T03:54:18.134Z,0.00
2022-08-03T03:55:18.123Z,0.00
2022-08-03T03:56:18.110Z,0.00
2022-08-03T03:57:18.304Z,0.00
2022-08-03T03:58:18.087Z,0.00
2022-08-03T03:59:18.076Z,0.00
2022-08-03T04:00:18.056Z,0.00
2022-08-03T04:01:18.124Z,0.00
2022-08-03T04:02:18.250Z,0.00
2022-08-03T04:03:18.017Z,0.00
2022-08-03T04:04:17.998Z,0.00
2022-08-03T04:05:17.987Z,0.00
2022-08-03T04:06:17.984Z,0.00
2022-08-03T04:07:17.958Z,0.00
2022-08-03T04:08:17.943Z,0.00
2022-08-03T04:09:17.930Z,0.00
2022-08-03T04:10:17.918Z,0.00
2022-08-03T04:11:17.907Z,0.00
2022-08-03T04:12:17.983Z,0.00
2022-08-03T04:13:17.885Z,0.00
2022-08-03T04:14:17.862Z,0.00
2022-08-03T04:15:17.857Z,0.00
2022-08-03T04:16:17.840Z,0.00
2022-08-03T04:17:17.829Z,0.00
2022-08-03T04:18:17.809Z,0.00
2022-08-03T04:19:22.754Z,0.00
2022-08-03T04:20:17.778Z,0.00
2022-08-03T04:21:17.772Z,0.00
2022-08-03T04:22:18.085Z,0.00
2022-08-03T04:23:17.741Z,0.00
2022-08-03T04:24:17.733Z,0.00
2022-08-03T04:25:17.718Z,0.00
2022-08-03T04:26:17.701Z,0.00
2022-08-03T04:27:17.691Z,0.00
2022-08-03T04:28:30.450Z,0.00
2022-08-03T04:29:17.662Z,0.00
2022-08-03T04:30:17.641Z,0.00
2022-08-03T04:31:17.634Z,0.00
2022-08-03T04:32:18.111Z,0.00
2022-08-03T04:33:17.606Z,0.00
2022-08-03T04:34:17.593Z,0.00
2022-08-03T04:35:17.580Z,0.00
2022-08-03T04:36:17.566Z,0.00
2022-08-03T04:37:17.555Z,0.00
2022-08-03T04:38:17.535Z,0.00
2022-08-03T04:39:17.527Z,0.00
2022-08-03T04:40:17.514Z,0.00
2022-08-03T04:41:17.497Z,0.00
2022-08-03T04:42:17.567Z,0.00
2022-08-03T04:43:17.467Z,0.00
2022-08-03T04:44:17.452Z,0.00
2022-08-03T04:45:17.438Z,0.00
2022-08-03T04:46:17.424Z,0.00
2022-08-03T04:47:17.421Z,0.00
2022-08-03T04:48:17.396Z,0.00
2022-08-03T04:49:17.440Z,0.00
2022-08-03T04:50:21.357Z,0.00
2022-08-03T04:51:17.368Z,0.00
2022-08-03T04:52:17.729Z,0.00
2022-08-03T04:53:17.343Z,0.00
2022-08-03T04:54:17.318Z,0.00
2022-08-03T04:55:17.314Z,0.00
2022-08-03T04:56:17.295Z,0.00
2022-08-03T04:57:21.962Z,0.00
2022-08-03T04:58:17.271Z,0.00
2022-08-03T04:59:17.259Z,0.00
2022-08-03T05:00:17.236Z,0.00
2022-08-03T05:01:17.266Z,0.00
2022-08-03T05:02:17.549Z,0.00
2022-08-03T05:03:20.127Z,0.00
2022-08-03T05:04:18.201Z,0.00
2022-08-03T05:05:17.188Z,0.00
2022-08-03T05:06:17.179Z,0.00
2022-08-03T05:07:19.510Z,0.00
2022-08-03T05:08:17.131Z,0.00
2022-08-03T05:09:49.886Z,0.00
2022-08-03T05:10:17.114Z,0.00
2022-08-03T05:11:17.097Z,0.00
2022-08-03T05:12:17.377Z,0.00
2022-08-03T05:13:17.062Z,0.00
2022-08-03T05:14:17.056Z,0.00
2022-08-03T05:15:17.038Z,0.00
2022-08-03T05:16:17.012Z,0.00
2022-08-03T05:17:17.003Z,0.00
2022-08-03T05:18:16.989Z,0.00
2022-08-03T05:19:16.977Z,0.00
2022-08-03T05:20:18.858Z,0.00
2022-08-03T05:21:17.010Z,0.00
2022-08-03T05:22:17.229Z,0.00
2022-08-03T05:23:16.935Z,0.00
2022-08-03T05:24:16.911Z,0.00
2022-08-03T05:25:19.160Z,0.00
2022-08-03T05:26:16.883Z,0.00
2022-08-03T05:27:16.878Z,0.00
2022-08-03T05:28:16.886Z,0.00
2022-08-03T05:29:16.851Z,0.00
2022-08-03T05:30:29.744Z,0.00
2022-08-03T05:31:16.821Z,0.00
2022-08-03T05:32:16.906Z,0.00
2022-08-03T05:33:16.799Z,0.00
2022-08-03T05:34:16.779Z,0.00
2022-08-03T05:35:57.500Z,0.00
2022-08-03T05:36:16.744Z,0.00
2022-08-03T05:37:16.740Z,0.00
2022-08-03T05:38:24.092Z,0.00
2022-08-03T05:39:16.706Z,0.00
2022-08-03T05:40:16.719Z,0.00
2022-08-03T05:41:21.891Z,0.00
2022-08-03T05:42:16.976Z,0.00
2022-08-03T05:43:16.692Z,0.00
2022-08-03T05:44:16.641Z,0.00
2022-08-03T05:45:16.648Z,0.00
2022-08-03T05:46:16.617Z,0.00
2022-08-03T05:47:16.596Z,0.00
2022-08-03T05:48:16.602Z,0.00
2022-08-03T05:49:16.814Z,0.00
2022-08-03T05:50:16.560Z,0.00
2022-08-03T05:51:16.564Z,0.00
2022-08-03T05:52:17.139Z,0.00
2022-08-03T05:53:16.553Z,0.00
2022-08-03T05:54:16.506Z,0.00
2022-08-03T05:55:16.498Z,0.00
2022-08-03T05:56:17.013Z,0.00
2022-08-03T05:57:16.461Z,0.00
2022-08-03T05:58:16.473Z,0.00
2022-08-03T05:59:37.162Z,0.00
2022-08-03T06:00:16.446Z,0.00
2022-08-03T06:01:16.498Z,0.00
2022-08-03T06:02:16.865Z,0.00
2022-08-03T06:03:16.392Z,0.00
2022-08-03T06:04:16.387Z,0.00
2022-08-03T06:05:16.371Z,0.00
2022-08-03T06:06:16.350Z,0.00
2022-08-03T06:07:16.337Z,0.00
2022-08-03T06:08:16.323Z,0.00
2022-08-03T06:09:16.310Z,0.00
2022-08-03T06:10:34.880Z,0.00
2022-08-03T06:11:16.299Z,0.00
2022-08-03T06:12:16.662Z,0.00
2022-08-03T06:13:16.262Z,0.00
2022-08-03T06:14:16.238Z,0.00
2022-08-03T06:15:16.221Z,0.00
2022-08-03T06:16:16.210Z,0.00
2022-08-03T06:17:16.197Z,0.00
2022-08-03T06:18:16.182Z,0.00
2022-08-03T06:19:16.172Z,0.00
2022-08-03T06:20:16.158Z,0.00
2022-08-03T06:21:16.369Z,0.00
2022-08-03T06:22:16.462Z,0.00
2022-08-03T06:23:18.088Z,0.00
2022-08-03T06:24:16.097Z,0.00
2022-08-03T06:25:16.083Z,0.00
2022-08-03T06:26:16.074Z,0.00
2022-08-03T06:27:16.063Z,0.00
2022-08-03T06:29:16.038Z,0.00
2022-08-03T06:30:19.339Z,0.00
2022-08-03T06:31:16.011Z,0.00
2022-08-03T06:32:16.002Z,0.00
2022-08-03T06:33:15.994Z,0.00
2022-08-03T06:34:32.324Z,0.00
2022-08-03T06:35:15.957Z,0.00
2022-08-03T06:36:15.950Z,0.00
2022-08-03T06:37:15.976Z,0.00
2022-08-03T06:38:15.926Z,0.00
2022-08-03T06:39:15.910Z,0.00
2022-08-03T06:40:15.883Z,0.00
2022-08-03T06:41:15.874Z,0.00
2022-08-03T06:42:16.173Z,0.00
2022-08-03T06:43:16.064Z,0.00
2022-08-03T06:44:15.840Z,0.00
2022-08-03T06:45:15.829Z,0.00
2022-08-03T06:46:15.814Z,0.00
2022-08-03T06:47:15.802Z,0.00
2022-08-03T06:48:15.790Z,0.00
2022-08-03T06:49:15.833Z,0.00
2022-08-03T06:50:17.870Z,0.00
2022-08-03T06:51:15.744Z,0.00
2022-08-03T06:52:38.170Z,0.00
2022-08-03T06:53:19.246Z,0.00
2022-08-03T06:54:15.701Z,0.00
2022-08-03T06:55:15.703Z,0.00
2022-08-03T06:56:15.675Z,0.00
2022-08-03T06:57:15.664Z,0.00
2022-08-03T06:58:15.650Z,0.00
2022-08-03T07:00:10.829Z,0.00
2022-08-03T07:00:15.619Z,0.00
2022-08-03T07:01:15.679Z,0.00
2022-08-03T07:02:18.278Z,0.00
2022-08-03T07:03:15.586Z,0.00
2022-08-03T07:04:15.575Z,0.00
2022-08-03T07:05:15.558Z,0.00
2022-08-03T07:06:15.553Z,0.00
2022-08-03T07:07:15.533Z,0.00
2022-08-03T07:08:15.517Z,0.00
2022-08-03T07:09:15.505Z,0.00
2022-08-03T07:10:15.492Z,0.00
2022-08-03T07:11:15.478Z,0.00
2022-08-03T07:12:15.688Z,0.00
2022-08-03T07:13:15.475Z,0.00
2022-08-03T07:14:15.443Z,0.00
2022-08-03T07:15:20.181Z,0.00
2022-08-03T07:16:15.433Z,0.00
2022-08-03T07:17:15.403Z,0.00
2022-08-03T07:18:15.380Z,0.00
2022-08-03T07:19:15.385Z,0.00
2022-08-03T07:20:15.378Z,0.00
2022-08-03T07:21:15.361Z,0.00
2022-08-03T07:22:15.490Z,0.00
2022-08-03T07:23:19.282Z,0.00
2022-08-03T07:24:15.298Z,0.00
2022-08-03T07:25:15.287Z,0.00
2022-08-03T07:26:15.276Z,0.00
2022-08-03T07:27:15.265Z,0.00
2022-08-03T07:28:15.252Z,0.00
2022-08-03T07:29:15.629Z,0.00
2022-08-03T07:30:15.212Z,0.00
2022-08-03T07:31:15.219Z,0.00
2022-08-03T07:32:15.502Z,0.00
2022-08-03T07:33:15.300Z,0.00
2022-08-03T07:34:15.174Z,0.00
2022-08-03T07:35:24.602Z,0.00
2022-08-03T07:36:15.151Z,0.00
2022-08-03T07:37:15.134Z,0.00
2022-08-03T07:38:15.139Z,0.00
2022-08-03T07:39:17.908Z,0.00
2022-08-03T07:40:15.103Z,0.00
2022-08-03T07:41:15.081Z,0.00
2022-08-03T07:42:15.277Z,0.00
2022-08-03T07:43:15.052Z,0.00
2022-08-03T07:44:15.049Z,0.00
2022-08-03T07:45:16.853Z,0.00
2022-08-03T07:46:14.998Z,0.00
2022-08-03T07:47:22.360Z,0.00
2022-08-03T07:48:14.976Z,0.00
2022-08-03T07:49:15.070Z,0.00
2022-08-03T07:50:14.953Z,0.00
2022-08-03T07:51:14.947Z,0.00
2022-08-03T07:52:15.163Z,0.00
2022-08-03T07:53:14.913Z,0.00
2022-08-03T07:54:14.898Z,0.00
2022-08-03T07:55:14.890Z,0.00
2022-08-03T07:56:14.871Z,0.00
2022-08-03T07:57:14.856Z,0.00
2022-08-03T07:58:14.847Z,0.00
2022-08-03T07:59:14.839Z,0.00
2022-08-03T08:00:14.823Z,0.00
2022-08-03T08:01:15.170Z,0.00
2022-08-03T08:02:14.953Z,0.00
2022-08-03T08:03:14.789Z,0.00
2022-08-03T08:04:14.775Z,0.00
2022-08-03T08:05:14.763Z,0.00
2022-08-03T08:06:14.756Z,0.00
2022-08-03T08:07:14.782Z,0.00
2022-08-03T08:08:14.728Z,0.00
2022-08-03T08:09:14.715Z,0.00
2022-08-03T08:10:14.705Z,0.00
2022-08-03T08:11:14.683Z,0.00
2022-08-03T08:12:15.348Z,0.00
2022-08-03T08:13:14.684Z,0.00
2022-08-03T08:14:14.648Z,0.00
2022-08-03T08:15:14.652Z,0.00
2022-08-03T08:16:14.624Z,0.00
2022-08-03T08:17:14.615Z,0.00
2022-08-03T08:18:14.605Z,0.00
2022-08-03T08:19:14.586Z,0.00
2022-08-03T08:20:14.602Z,0.00
2022-08-03T08:21:14.609Z,0.00
2022-08-03T08:22:14.644Z,0.00
2022-08-03T08:23:37.915Z,0.00
2022-08-03T08:24:18.113Z,0.00
2022-08-03T08:25:14.513Z,0.00
2022-08-03T08:26:14.505Z,0.00
2022-08-03T08:27:14.505Z,0.00
2022-08-03T08:28:31.517Z,0.00
2022-08-03T08:29:14.481Z,0.00
2022-08-03T08:30:17.364Z,0.00
2022-08-03T08:31:14.432Z,0.00
2022-08-03T08:32:14.444Z,0.00
2022-08-03T08:33:23.018Z,0.00
2022-08-03T08:34:14.410Z,0.00
2022-08-03T08:35:14.388Z,0.00
2022-08-03T08:36:15.487Z,0.00
2022-08-03T08:37:14.372Z,0.00
2022-08-03T08:38:14.370Z,0.00
2022-08-03T08:39:14.339Z,0.00
2022-08-03T08:40:14.353Z,0.00
2022-08-03T08:41:14.328Z,0.00
2022-08-03T08:42:14.593Z,0.00
2022-08-03T08:43:14.300Z,0.00
2022-08-03T08:44:14.281Z,0.00
2022-08-03T08:45:14.265Z,0.00
2022-08-03T08:46:23.383Z,0.10
2022-08-03T08:47:14.252Z,0.00
2022-08-03T08:48:14.237Z,0.10
2022-08-03T08:49:14.298Z,0.00
2022-08-03T08:50:27.124Z,0.10
2022-08-03T08:51:14.197Z,0.10
2022-08-03T08:52:29.529Z,0.10
2022-08-03T08:53:17.694Z,0.10
2022-08-03T08:54:14.178Z,0.10
2022-08-03T08:55:14.160Z,0.10
2022-08-03T08:56:14.149Z,0.10
2022-08-03T08:57:33.565Z,0.10
2022-08-03T08:58:14.137Z,0.10
2022-08-03T08:59:14.107Z,0.10
2022-08-03T09:00:14.107Z,0.10
2022-08-03T09:01:14.147Z,0.10
2022-08-03T09:02:14.085Z,0.10
2022-08-03T09:03:14.067Z,0.10
2022-08-03T09:04:14.069Z,0.10
2022-08-03T09:05:14.045Z,0.20
2022-08-03T09:06:14.038Z,0.20
2022-08-03T09:07:19.675Z,0.20
2022-08-03T09:08:15.034Z,0.20
2022-08-03T09:09:28.371Z,0.20
2022-08-03T09:10:14.110Z,0.20
2022-08-03T09:11:14.009Z,0.20
2022-08-03T09:12:38.854Z,0.20
2022-08-03T09:13:14.984Z,0.20
2022-08-03T09:14:34.391Z,0.20
2022-08-03T09:15:17.304Z,0.20
2022-08-03T09:16:13.919Z,0.20
2022-08-03T09:17:17.117Z,0.20
2022-08-03T09:18:13.933Z,0.30
2022-08-03T09:19:13.890Z,0.30
2022-08-03T09:20:13.873Z,0.30
2022-08-03T09:21:30.005Z,0.30
2022-08-03T09:22:13.866Z,0.30
2022-08-03T09:23:51.794Z,0.30
2022-08-03T09:24:31.087Z,0.30
2022-08-03T09:25:26.869Z,0.30
2022-08-03T09:26:14.857Z,0.30
2022-08-03T09:27:13.813Z,0.30
2022-08-03T09:28:13.794Z,0.30
2022-08-03T09:29:15.224Z,0.30
2022-08-03T09:30:33.365Z,0.30
2022-08-03T09:31:13.749Z,0.30
2022-08-03T09:32:14.909Z,0.40
2022-08-03T09:33:13.731Z,0.40
2022-08-03T09:34:13.730Z,0.40
2022-08-03T09:35:13.714Z,0.40
2022-08-03T09:36:13.695Z,0.40
2022-08-03T09:37:13.772Z,0.40
2022-08-03T09:38:14.418Z,0.40
2022-08-03T09:39:13.692Z,0.50
2022-08-03T09:40:13.667Z,0.50
2022-08-03T09:41:13.642Z,0.50
2022-08-03T09:42:14.958Z,0.60
2022-08-03T09:43:13.623Z,0.60
2022-08-03T09:44:24.894Z,0.60
2022-08-03T09:45:13.610Z,0.60
2022-08-03T09:46:13.598Z,0.60
2022-08-03T09:47:13.582Z,0.70
2022-08-03T09:48:13.571Z,0.70
2022-08-03T09:49:13.652Z,0.80
2022-08-03T09:50:13.645Z,0.80
2022-08-03T09:51:33.103Z,0.90
2022-08-03T09:52:32.782Z,1.00
2022-08-03T09:53:13.513Z,1.00
2022-08-03T09:54:20.313Z,1.10
2022-08-03T09:56:33.541Z,1.10
2022-08-03T09:56:34.031Z,1.10
2022-08-03T09:57:14.537Z,1.10
2022-08-03T09:58:13.474Z,1.10
2022-08-03T09:59:13.475Z,1.20
2022-08-03T10:00:13.546Z,1.30
2022-08-03T10:01:23.612Z,1.30
2022-08-03T10:02:14.442Z,1.30
2022-08-03T10:03:13.409Z,1.40
2022-08-03T10:04:13.400Z,1.40
2022-08-03T10:05:19.590Z,1.50
2022-08-03T10:06:13.383Z,1.40
2022-08-03T10:07:13.486Z,1.50
2022-08-03T10:08:13.356Z,1.50
2022-08-03T10:09:13.343Z,1.50
2022-08-03T10:10:29.897Z,1.30
2022-08-03T10:11:14.346Z,1.30
2022-08-03T10:12:13.322Z,1.40
2022-08-03T10:13:13.307Z,1.30
2022-08-03T10:14:13.312Z,1.50
2022-08-03T10:16:22.022Z,1.50
2022-08-03T10:16:23.606Z,1.50
2022-08-03T10:17:13.368Z,1.60
2022-08-03T10:18:13.281Z,1.70
2022-08-03T10:19:13.246Z,1.80
2022-08-03T10:20:13.241Z,1.70
2022-08-03T10:21:13.259Z,1.90
2022-08-03T10:22:13.239Z,1.90
2022-08-03T10:23:13.215Z,1.80
2022-08-03T10:24:13.205Z,1.90
2022-08-03T10:25:13.619Z,1.80
2022-08-03T10:26:13.190Z,1.80
2022-08-03T10:27:13.230Z,1.80
2022-08-03T10:28:13.162Z,1.90
2022-08-03T10:29:13.159Z,1.90
2022-08-03T10:30:13.143Z,1.80
2022-08-03T10:31:13.185Z,1.80
2022-08-03T10:32:13.130Z,2.00
2022-08-03T10:33:50.906Z,1.90
2022-08-03T10:34:13.109Z,1.90
2022-08-03T10:35:20.269Z,2.00
2022-08-03T10:36:13.085Z,2.00
2022-08-03T10:37:13.158Z,2.00
2022-08-03T10:38:13.084Z,2.00
2022-08-03T10:39:16.103Z,2.10
2022-08-03T10:40:16.141Z,2.00
2022-08-03T10:41:14.088Z,2.10
2022-08-03T10:42:14.724Z,2.20
2022-08-03T10:43:13.013Z,2.20
2022-08-03T10:44:13.002Z,2.40
2022-08-03T10:45:12.990Z,2.40
2022-08-03T10:46:12.983Z,2.70
2022-08-03T10:47:13.032Z,2.60
2022-08-03T10:48:12.971Z,2.60
2022-08-03T10:49:13.009Z,2.80
2022-08-03T10:50:12.947Z,3.00
2022-08-03T10:51:12.952Z,3.10
2022-08-03T10:52:33.635Z,3.10
2022-08-03T10:53:14.683Z,3.20
2022-08-03T10:54:12.924Z,3.30
2022-08-03T10:55:12.908Z,3.30
2022-08-03T10:56:12.891Z,3.30
2022-08-03T10:57:14.308Z,3.40
2022-08-03T10:58:12.902Z,3.50
2022-08-03T10:59:14.595Z,3.80
2022-08-03T11:00:12.857Z,3.90
2022-08-03T11:01:12.972Z,4.00
2022-08-03T11:02:12.841Z,4.20
2022-08-03T11:03:12.825Z,4.40
2022-08-03T11:04:16.678Z,4.60
2022-08-03T11:05:12.798Z,4.40
2022-08-03T11:06:12.786Z,4.60
2022-08-03T11:07:12.876Z,4.30
2022-08-03T11:08:12.776Z,4.20
2022-08-03T11:09:12.774Z,4.20
2022-08-03T11:10:12.748Z,4.00
2022-08-03T11:11:12.745Z,3.80
2022-08-03T11:12:12.726Z,3.90
2022-08-03T11:13:12.707Z,3.50
2022-08-03T11:14:12.706Z,3.60
2022-08-03T11:15:12.690Z,3.70
2022-08-03T11:16:18.288Z,3.50
2022-08-03T11:17:14.536Z,3.50
2022-08-03T11:18:12.668Z,3.60
2022-08-03T11:19:12.652Z,3.70
2022-08-03T11:20:12.647Z,3.70
2022-08-03T11:21:12.636Z,3.80
2022-08-03T11:22:12.636Z,4.00
2022-08-03T11:23:12.620Z,3.80
2022-08-03T11:24:12.603Z,3.90
2022-08-03T11:25:53.222Z,4.00
2022-08-03T11:26:13.624Z,4.00
2022-08-03T11:27:12.592Z,3.80
2022-08-03T11:28:12.567Z,3.80
2022-08-03T11:29:12.554Z,3.80
2022-08-03T11:30:12.583Z,3.70
2022-08-03T11:31:22.462Z,3.50
2022-08-03T11:32:15.511Z,3.60
2022-08-03T11:33:12.518Z,3.50
2022-08-03T11:34:12.534Z,3.40
2022-08-03T11:35:12.503Z,3.50
2022-08-03T11:36:12.514Z,3.40
2022-08-03T11:37:12.556Z,3.60
2022-08-03T11:38:12.487Z,3.70
2022-08-03T11:39:12.467Z,3.60
2022-08-03T11:40:12.455Z,3.50
2022-08-03T11:41:12.454Z,3.60
2022-08-03T11:42:12.434Z,3.50
2022-08-03T11:43:12.428Z,3.40
2022-08-03T11:44:12.425Z,3.40
2022-08-03T11:45:12.614Z,3.30
2022-08-03T11:46:12.396Z,3.20
2022-08-03T11:47:12.396Z,3.00
2022-08-03T11:48:12.384Z,3.00
2022-08-03T11:49:12.418Z,2.90
2022-08-03T11:50:12.361Z,2.80
2022-08-03T11:51:12.349Z,2.70
2022-08-03T11:52:12.333Z,2.70
2022-08-03T11:53:12.321Z,2.70
2022-08-03T11:54:12.319Z,2.40
2022-08-03T11:55:12.297Z,2.40
2022-08-03T11:56:12.665Z,2.40
2022-08-03T11:57:12.383Z,2.80
2022-08-03T11:58:57.762Z,2.50
2022-08-03T11:59:19.952Z,2.70
2022-08-03T12:00:13.296Z,2.50
2022-08-03T12:01:12.272Z,2.40
2022-08-03T12:02:12.245Z,2.30
2022-08-03T12:03:12.351Z,2.20
2022-08-03T12:04:12.217Z,1.90
2022-08-03T12:05:12.211Z,1.90
2022-08-03T12:06:12.202Z,1.70
2022-08-03T12:07:12.182Z,1.70
2022-08-03T12:08:12.180Z,1.70
2022-08-03T12:09:12.158Z,1.70
2022-08-03T12:10:12.152Z,1.70
2022-08-03T12:11:12.137Z,1.70
2022-08-03T12:12:12.134Z,1.70
2022-08-03T12:14:44.982Z,1.70
2022-08-03T12:14:48.788Z,1.70
2022-08-03T12:15:13.159Z,1.80
2022-08-03T12:16:12.096Z,1.80
2022-08-03T12:17:12.147Z,1.70
2022-08-03T12:18:12.079Z,1.60
2022-08-03T12:19:12.078Z,1.70
2022-08-03T12:20:12.074Z,1.60
2022-08-03T12:21:12.052Z,1.60
2022-08-03T12:22:12.032Z,1.50
2022-08-03T12:23:12.034Z,1.70
2022-08-03T12:24:12.014Z,1.60
2022-08-03T12:25:12.028Z,1.50
2022-08-03T12:26:11.991Z,1.50
2022-08-03T12:27:12.059Z,1.50
2022-08-03T12:28:37.476Z,1.30
2022-08-03T12:29:11.963Z,1.30
2022-08-03T12:30:11.956Z,1.10
2022-08-03T12:31:12.056Z,1.10
2022-08-03T12:32:11.939Z,1.10
2022-08-03T12:33:11.931Z,1.00
2022-08-03T12:34:11.909Z,1.00
2022-08-03T12:35:11.909Z,1.00
2022-08-03T12:36:11.899Z,1.00
2022-08-03T12:37:19.008Z,1.00
2022-08-03T12:38:12.901Z,0.90
2022-08-03T12:39:11.886Z,0.90
2022-08-03T12:40:15.106Z,0.90
2022-08-03T12:41:11.840Z,0.90
2022-08-03T12:42:11.824Z,0.80
2022-08-03T12:43:11.820Z,0.80
2022-08-03T12:44:11.809Z,0.90
2022-08-03T12:45:11.794Z,0.70
2022-08-03T12:46:11.795Z,0.70
2022-08-03T12:47:11.778Z,0.60
2022-08-03T12:48:11.762Z,0.60
2022-08-03T12:49:11.821Z,0.60
2022-08-03T12:50:11.750Z,0.50
2022-08-03T12:51:11.736Z,0.40
2022-08-03T12:52:11.724Z,0.30
2022-08-03T12:53:11.726Z,0.30
2022-08-03T12:54:11.701Z,0.20
2022-08-03T12:55:11.688Z,0.20
2022-08-03T12:56:11.674Z,0.20
2022-08-03T12:57:15.943Z,0.10
2022-08-03T12:58:14.741Z,0.10
2022-08-03T12:59:12.694Z,0.10
2022-08-03T13:00:21.456Z,0.10
2022-08-03T13:01:13.806Z,0.10
2022-08-03T13:02:11.688Z,0.10
2022-08-03T13:03:39.037Z,0.10
2022-08-03T13:04:17.962Z,0.00
2022-08-03T13:05:11.566Z,0.00
2022-08-03T13:06:11.551Z,0.00
2022-08-03T13:07:14.162Z,0.00
2022-08-03T13:08:11.561Z,0.00
2022-08-03T13:09:11.529Z,0.00
2022-08-03T13:10:11.519Z,0.00
2022-08-03T13:11:11.510Z,0.00
2022-08-03T13:12:11.507Z,0.00
2022-08-03T13:13:11.508Z,0.00
2022-08-03T13:14:15.316Z,0.00
2022-08-03T13:15:12.521Z,0.00
2022-08-03T13:16:15.776Z,0.00
2022-08-03T13:17:12.465Z,0.00
2022-08-03T13:18:11.421Z,0.00
2022-08-03T13:19:15.704Z,0.00